Time;durP1;ratioP1;P1;durP2;ratioP2;P2;SDS_P1;SDS_P2;PMS_P1;PMS_P2;Temp;Humidity;BMP_temperature;BMP_pressure;BME280_temperature;BME280_humidity;BME280_pressure;Samples;Min_cycle;Max_cycle;Signal;HPM_P1;HPM_P2
2022/07/07 00:01:26;;;;;;;2.05;0.80;;;;;;;;;;5035167;28;20085;-64
2022/07/07 00:03:53;;;;;;;1.50;0.68;;;;;;;;;;5035038;28;20129;-66
2022/07/07 00:06:18;;;;;;;2.95;0.68;;;;;;;;;;5035298;28;20474;-65
2022/07/07 00:08:44;;;;;;;2.83;0.60;;;;;;;;;;5035271;28;20092;-65
2022/07/07 00:11:10;;;;;;;1.73;0.70;;;;;;;;;;5035612;28;20371;-65
2022/07/07 00:13:36;;;;;;;3.20;0.65;;;;;;;;;;5034123;28;20021;-65
2022/07/07 00:16:02;;;;;;;3.28;0.95;;;;;;;;;;5035003;28;20029;-66
2022/07/07 00:18:28;;;;;;;1.77;0.60;;;;;;;;;;5034816;28;20057;-65
2022/07/07 00:20:53;;;;;;;1.15;0.75;;;;;;;;;;5034868;28;20029;-66
2022/07/07 00:23:19;;;;;;;3.60;0.77;;;;;;;;;;5034978;28;20030;-67
2022/07/07 00:25:44;;;;;;;1.38;0.60;;;;;;;;;;5034971;28;20021;-65
2022/07/07 00:28:10;;;;;;;3.17;0.95;;;;;;;;;;5034932;28;20028;-66
2022/07/07 00:30:36;;;;;;;3.05;0.82;;;;;;;;;;5034977;28;20021;-67
2022/07/07 00:33:01;;;;;;;3.17;0.60;;;;;;;;;;5034663;28;20112;-66
2022/07/07 00:35:27;;;;;;;2.92;0.82;;;;;;;;;;5034739;28;20021;-67
2022/07/07 00:37:52;;;;;;;3.58;0.70;;;;;;;;;;5034758;28;20041;-66
2022/07/07 00:40:18;;;;;;;5.05;0.90;;;;;;;;;;5034679;28;20034;-67
2022/07/07 00:42:43;;;;;;;1.35;0.60;;;;;;;;;;5034695;28;20025;-67
2022/07/07 00:45:09;;;;;;;3.15;0.50;;;;;;;;;;5034664;28;20033;-66
2022/07/07 00:47:36;;;;;;;2.30;0.82;;;;;;;;;;5034443;28;20025;-65
2022/07/07 00:50:02;;;;;;;1.20;0.60;;;;;;;;;;5034455;28;20029;-66
2022/07/07 00:52:28;;;;;;;3.25;0.60;;;;;;;;;;5034458;28;20025;-65
2022/07/07 00:54:59;;;;;;;2.47;0.95;;;;;;;;;;5034616;28;20021;-67
2022/07/07 00:57:26;;;;;;;1.85;0.63;;;;;;;;;;5034656;28;20087;-66
2022/07/07 00:59:56;;;;;;;2.97;0.70;;;;;;;;;;5034335;28;20155;-66
2022/07/07 01:02:22;;;;;;;0.68;0.63;;;;;;;;;;5032702;28;20481;-66
2022/07/07 01:04:47;;;;;;;1.58;0.60;;;;;;;;;;5034197;28;20096;-66
2022/07/07 01:07:14;;;;;;;1.08;0.63;;;;;;;;;;5034228;28;20026;-66
2022/07/07 01:09:41;;;;;;;5.30;1.05;;;;;;;;;;5034189;28;20471;-66
2022/07/07 01:12:07;;;;;;;2.90;0.80;;;;;;;;;;5034007;28;20025;-66
2022/07/07 01:14:33;;;;;;;2.35;0.70;;;;;;;;;;5033784;28;20372;-65
2022/07/07 01:16:59;;;;;;;2.35;0.70;;;;;;;;;;5033984;28;20042;-65
2022/07/07 01:19:25;;;;;;;1.35;0.88;;;;;;;;;;5033925;28;20033;-65
2022/07/07 01:22:06;;;;;;;2.00;0.70;;;;;;;;;;5033758;28;20057;-66
2022/07/07 01:24:32;;;;;;;3.00;0.73;;;;;;;;;;5033991;28;20485;-66
2022/07/07 01:27:13;;;;;;;3.53;0.90;;;;;;;;;;5033865;28;20053;-66
2022/07/07 01:29:40;;;;;;;1.55;0.77;;;;;;;;;;5033706;28;20148;-66
2022/07/07 01:32:09;;;;;;;2.40;0.80;;;;;;;;;;5033630;28;20083;-66
2022/07/07 01:34:40;;;;;;;1.73;0.75;;;;;;;;;;5033831;28;20502;-66
2022/07/07 01:37:06;;;;;;;2.90;0.73;;;;;;;;;;5033600;28;20037;-66
2022/07/07 01:39:32;;;;;;;1.80;0.80;;;;;;;;;;5033811;28;20033;-67
2022/07/07 01:41:58;;;;;;;2.55;0.80;;;;;;;;;;5033598;28;20136;-66
2022/07/07 01:44:23;;;;;;;3.67;0.80;;;;;;;;;;5033368;28;20110;-66
2022/07/07 01:46:49;;;;;;;3.78;0.80;;;;;;;;;;5033366;28;20032;-66
2022/07/07 01:49:15;;;;;;;2.85;0.75;;;;;;;;;;5033472;28;20025;-66
2022/07/07 01:51:40;;;;;;;2.35;0.70;;;;;;;;;;5033363;28;20459;-66
2022/07/07 01:54:06;;;;;;;4.47;0.75;;;;;;;;;;5033311;28;20025;-67
2022/07/07 01:56:31;;;;;;;3.47;0.90;;;;;;;;;;5033297;28;20120;-66
2022/07/07 01:58:57;;;;;;;5.00;0.75;;;;;;;;;;5033098;28;20068;-67
2022/07/07 02:01:23;;;;;;;2.03;0.70;;;;;;;;;;5032977;28;20038;-66
2022/07/07 02:03:49;;;;;;;2.50;0.70;;;;;;;;;;5033187;28;20021;-67
2022/07/07 02:06:14;;;;;;;3.00;0.98;;;;;;;;;;5033054;28;20384;-66
2022/07/07 02:08:40;;;;;;;1.65;0.73;;;;;;;;;;5033101;28;20032;-66
2022/07/07 02:11:14;;;;;;;1.70;0.73;;;;;;;;;;5033168;28;20032;-66
2022/07/07 02:13:51;;;;;;;1.77;0.70;;;;;;;;;;5031434;28;20021;-66
2022/07/07 02:16:19;;;;;;;2.92;0.75;;;;;;;;;;5032952;28;20033;-66
2022/07/07 02:18:46;;;;;;;2.60;0.90;;;;;;;;;;5032858;28;20021;-66
2022/07/07 02:21:13;;;;;;;2.65;0.90;;;;;;;;;;5032982;28;20121;-66
2022/07/07 02:23:43;;;;;;;2.22;0.90;;;;;;;;;;5032886;28;20029;-68
2022/07/07 02:26:08;;;;;;;2.75;0.85;;;;;;;;;;5032758;28;20505;-66
2022/07/07 02:28:34;;;;;;;4.15;1.60;;;;;;;;;;5032611;28;20037;-66
2022/07/07 02:31:00;;;;;;;5.00;0.88;;;;;;;;;;5032747;28;20033;-66
2022/07/07 02:33:26;;;;;;;4.95;0.90;;;;;;;;;;5032678;28;20132;-66
2022/07/07 02:35:53;;;;;;;2.53;0.80;;;;;;;;;;5032229;28;20108;-68
2022/07/07 02:38:20;;;;;;;1.35;0.93;;;;;;;;;;5032668;28;20040;-67
2022/07/07 02:40:45;;;;;;;4.20;1.00;;;;;;;;;;5032638;28;20021;-67
2022/07/07 02:43:13;;;;;;;3.33;2.00;;;;;;;;;;5032471;28;20018;-66
2022/07/07 02:45:43;;;;;;;2.25;0.80;;;;;;;;;;5032935;28;20034;-67
2022/07/07 02:48:10;;;;;;;2.80;0.82;;;;;;;;;;5032569;28;20035;-68
2022/07/07 02:50:37;;;;;;;5.75;1.05;;;;;;;;;;5032558;28;20057;-65
2022/07/07 02:53:03;;;;;;;1.33;0.80;;;;;;;;;;5032401;28;20053;-64
2022/07/07 02:55:30;;;;;;;3.47;1.05;;;;;;;;;;5032444;28;20026;-65
2022/07/07 02:57:59;;;;;;;1.25;0.73;;;;;;;;;;5032172;28;20028;-65
2022/07/07 03:00:25;;;;;;;5.00;0.80;;;;;;;;;;5032311;28;20025;-65
2022/07/07 03:02:54;;;;;;;1.77;0.93;;;;;;;;;;5031918;28;20450;-65
2022/07/07 03:05:21;;;;;;;1.63;0.80;;;;;;;;;;5032213;28;20560;-64
2022/07/07 03:07:47;;;;;;;4.82;1.13;;;;;;;;;;5032493;28;20030;-64
2022/07/07 03:10:13;;;;;;;2.53;1.08;;;;;;;;;;5032175;28;20095;-65
2022/07/07 03:12:39;;;;;;;2.20;0.80;;;;;;;;;;5032167;28;20057;-65
2022/07/07 03:15:05;;;;;;;3.90;1.10;;;;;;;;;;5032250;28;20060;-66
2022/07/07 03:17:31;;;;;;;3.65;1.00;;;;;;;;;;5032236;28;20033;-64
2022/07/07 03:19:56;;;;;;;4.78;1.40;;;;;;;;;;5032269;28;20026;-65
2022/07/07 03:22:22;;;;;;;6.18;1.17;;;;;;;;;;5031977;28;20344;-65
2022/07/07 03:24:48;;;;;;;3.83;1.38;;;;;;;;;;5031792;28;20100;-66
2022/07/07 03:27:13;;;;;;;2.53;1.23;;;;;;;;;;5032078;28;20556;-65
2022/07/07 03:29:39;;;;;;;5.00;1.17;;;;;;;;;;5032146;28;20056;-65
2022/07/07 03:32:05;;;;;;;3.40;1.35;;;;;;;;;;5032038;28;20105;-64
2022/07/07 03:34:31;;;;;;;3.42;1.20;;;;;;;;;;5032165;28;20340;-64
2022/07/07 03:36:56;;;;;;;2.63;1.25;;;;;;;;;;5031900;28;20037;-65
2022/07/07 03:39:22;;;;;;;5.50;1.50;;;;;;;;;;5031685;28;20049;-64
2022/07/07 03:41:47;;;;;;;4.25;1.20;;;;;;;;;;5032173;28;20087;-65
2022/07/07 03:44:13;;;;;;;4.30;2.55;;;;;;;;;;5032114;28;20025;-64
2022/07/07 03:46:38;;;;;;;2.45;1.38;;;;;;;;;;5032184;28;20379;-64
2022/07/07 03:49:04;;;;;;;4.75;1.60;;;;;;;;;;5035555;28;20374;-64
2022/07/07 03:51:30;;;;;;;4.43;2.15;;;;;;;;;;5035649;28;20025;-64
2022/07/07 03:53:55;;;;;;;3.70;1.45;;;;;;;;;;5034008;28;20497;-65
2022/07/07 03:56:21;;;;;;;5.85;1.90;;;;;;;;;;5035607;28;20083;-64
2022/07/07 03:58:46;;;;;;;6.00;1.75;;;;;;;;;;5035547;28;20026;-67
2022/07/07 04:01:12;;;;;;;4.15;1.90;;;;;;;;;;5035455;28;20056;-67
2022/07/07 04:03:37;;;;;;;3.65;1.60;;;;;;;;;;5035295;28;20033;-64
2022/07/07 04:06:04;;;;;;;5.25;1.30;;;;;;;;;;5035297;28;20033;-65
2022/07/07 04:08:30;;;;;;;3.75;1.50;;;;;;;;;;5035026;28;20018;-64
2022/07/07 04:10:56;;;;;;;5.50;1.50;;;;;;;;;;5035219;28;20041;-64
2022/07/07 04:13:21;;;;;;;3.45;1.70;;;;;;;;;;5035160;28;20021;-63
2022/07/07 04:15:47;;;;;;;3.95;1.60;;;;;;;;;;5035141;28;20040;-64
2022/07/07 04:18:12;;;;;;;4.55;1.55;;;;;;;;;;5035185;28;20033;-65
2022/07/07 04:20:38;;;;;;;3.85;1.60;;;;;;;;;;5034864;28;20053;-65
2022/07/07 04:23:04;;;;;;;5.68;1.70;;;;;;;;;;5034427;28;20497;-66
2022/07/07 04:25:29;;;;;;;4.45;2.00;;;;;;;;;;5034900;28;20435;-65
2022/07/07 04:27:55;;;;;;;8.02;4.75;;;;;;;;;;5034836;28;20065;-65
2022/07/07 04:30:21;;;;;;;3.60;1.83;;;;;;;;;;5034732;28;20029;-64
2022/07/07 04:32:46;;;;;;;5.03;1.80;;;;;;;;;;5034731;28;20036;-64
2022/07/07 04:35:12;;;;;;;5.53;1.80;;;;;;;;;;5034945;28;20483;-64
2022/07/07 04:37:37;;;;;;;5.97;1.80;;;;;;;;;;5034558;28;20108;-63
2022/07/07 04:40:03;;;;;;;6.05;1.67;;;;;;;;;;5034782;28;20026;-64
2022/07/07 04:42:29;;;;;;;4.55;2.10;;;;;;;;;;5034702;28;20068;-65
2022/07/07 04:44:55;;;;;;;4.88;2.08;;;;;;;;;;5034570;28;20045;-65
2022/07/07 04:47:21;;;;;;;2.83;1.42;;;;;;;;;;5034648;28;20038;-65
2022/07/07 04:49:46;;;;;;;4.88;1.70;;;;;;;;;;5033193;28;20025;-64
2022/07/07 04:52:12;;;;;;;4.90;1.70;;;;;;;;;;5034235;28;20033;-65
2022/07/07 04:54:37;;;;;;;2.92;1.63;;;;;;;;;;5034397;28;20053;-64
2022/07/07 04:57:03;;;;;;;4.07;1.80;;;;;;;;;;5034115;28;20142;-65
2022/07/07 04:59:29;;;;;;;3.33;1.65;;;;;;;;;;5033945;28;20479;-64
2022/07/07 05:01:54;;;;;;;2.88;1.30;;;;;;;;;;5033838;28;20468;-64
2022/07/07 05:04:20;;;;;;;2.78;1.30;;;;;;;;;;5034123;28;20040;-65
2022/07/07 05:06:45;;;;;;;2.13;1.27;;;;;;;;;;5033992;28;20029;-64
2022/07/07 05:09:11;;;;;;;2.00;1.40;;;;;;;;;;5034106;28;20025;-65
2022/07/07 05:11:37;;;;;;;2.35;1.40;;;;;;;;;;5034058;28;20084;-65
2022/07/07 05:14:02;;;;;;;3.90;1.98;;;;;;;;;;5034069;28;20037;-63
2022/07/07 05:16:31;;;;;;;3.83;2.28;;;;;;;;;;5033723;28;20036;-64
2022/07/07 05:18:57;;;;;;;4.82;3.65;;;;;;;;;;5033908;28;20048;-65
2022/07/07 05:21:22;;;;;;;8.18;3.55;;;;;;;;;;5033506;28;20030;-65
2022/07/07 05:23:48;;;;;;;5.22;3.42;;;;;;;;;;5033954;28;20041;-65
2022/07/07 05:26:14;;;;;;;3.53;2.00;;;;;;;;;;5033790;28;20079;-64
2022/07/07 05:28:43;;;;;;;3.88;2.28;;;;;;;;;;5033805;28;20030;-65
2022/07/07 05:31:10;;;;;;;2.50;1.58;;;;;;;;;;5033817;28;20096;-64
2022/07/07 05:33:36;;;;;;;1.60;1.13;;;;;;;;;;5033573;28;20029;-65
2022/07/07 05:36:02;;;;;;;5.45;1.58;;;;;;;;;;5033270;28;20442;-64
2022/07/07 05:38:28;;;;;;;3.22;1.80;;;;;;;;;;5033450;28;20030;-64
2022/07/07 05:40:54;;;;;;;4.15;2.58;;;;;;;;;;5033390;28;20022;-64
2022/07/07 05:43:19;;;;;;;7.05;3.40;;;;;;;;;;5033424;28;20021;-65
2022/07/07 05:45:45;;;;;;;2.78;1.90;;;;;;;;;;5033514;28;20029;-65
2022/07/07 05:48:10;;;;;;;1.67;1.30;;;;;;;;;;5033386;28;20036;-65
2022/07/07 05:50:36;;;;;;;5.63;1.80;;;;;;;;;;5031747;28;20389;-65
2022/07/07 05:53:01;;;;;;;8.30;2.25;;;;;;;;;;5033352;28;20026;-65
2022/07/07 05:55:27;;;;;;;6.63;2.55;;;;;;;;;;5033140;28;20363;-65
2022/07/07 05:57:53;;;;;;;4.65;1.52;;;;;;;;;;5033316;28;20052;-65
2022/07/07 06:00:18;;;;;;;4.80;1.73;;;;;;;;;;5033133;28;20497;-65
2022/07/07 06:02:44;;;;;;;3.10;1.60;;;;;;;;;;5032825;28;20091;-65
2022/07/07 06:05:09;;;;;;;4.80;1.83;;;;;;;;;;5032998;28;20017;-65
2022/07/07 06:07:35;;;;;;;7.25;1.77;;;;;;;;;;5033161;28;20032;-66
2022/07/07 06:10:01;;;;;;;8.30;2.00;;;;;;;;;;5032380;28;20033;-65
2022/07/07 06:12:26;;;;;;;4.10;1.60;;;;;;;;;;5016680;28;20026;-65
2022/07/07 06:14:52;;;;;;;2.35;1.48;;;;;;;;;;5013142;28;20029;-65
2022/07/07 06:17:17;;;;;;;3.83;1.70;;;;;;;;;;5013134;28;20041;-65
2022/07/07 06:19:43;;;;;;;2.58;1.60;;;;;;;;;;5013048;28;20034;-65
2022/07/07 06:22:09;;;;;;;3.05;1.60;;;;;;;;;;5024711;28;20095;-65
2022/07/07 06:24:34;;;;;;;4.43;1.67;;;;;;;;;;5032898;28;20025;-66
2022/07/07 06:27:00;;;;;;;2.85;1.40;;;;;;;;;;5032253;28;20034;-65
2022/07/07 06:29:25;;;;;;;2.28;1.48;;;;;;;;;;5032650;28;20032;-66
2022/07/07 06:31:51;;;;;;;3.95;1.92;;;;;;;;;;5032770;28;20086;-65
2022/07/07 06:34:16;;;;;;;3.33;1.50;;;;;;;;;;5032438;28;20021;-65
2022/07/07 06:36:42;;;;;;;1.80;1.23;;;;;;;;;;5031295;28;20430;-65
2022/07/07 06:39:07;;;;;;;2.20;1.38;;;;;;;;;;5031487;28;20026;-65
2022/07/07 06:41:37;;;;;;;3.70;1.40;;;;;;;;;;5032646;28;20025;-65
2022/07/07 06:44:07;;;;;;;3.33;1.40;;;;;;;;;;5029130;28;20054;-65
2022/07/07 06:46:33;;;;;;;1.40;1.08;;;;;;;;;;5032144;28;20697;-65
2022/07/07 06:48:59;;;;;;;3.97;1.50;;;;;;;;;;5035027;28;20064;-65
2022/07/07 06:51:24;;;;;;;4.53;1.40;;;;;;;;;;5032417;28;20391;-65
2022/07/07 06:53:50;;;;;;;4.22;1.40;;;;;;;;;;5032355;28;20017;-64
2022/07/07 06:56:16;;;;;;;1.65;1.20;;;;;;;;;;5032062;28;20029;-64
2022/07/07 06:58:41;;;;;;;1.88;1.20;;;;;;;;;;5032127;28;20479;-65
2022/07/07 07:01:08;;;;;;;5.18;1.40;;;;;;;;;;5030546;28;20029;-65
2022/07/07 07:03:33;;;;;;;5.25;1.40;;;;;;;;;;5031712;28;20390;-65
2022/07/07 07:05:59;;;;;;;2.05;1.40;;;;;;;;;;5032006;28;20108;-65
2022/07/07 07:08:25;;;;;;;2.92;1.90;;;;;;;;;;5032044;28;20103;-65
2022/07/07 07:10:50;;;;;;;1.77;1.10;;;;;;;;;;5031786;28;20430;-66
2022/07/07 07:13:16;;;;;;;3.35;1.50;;;;;;;;;;5030783;28;20102;-65
2022/07/07 07:15:41;;;;;;;6.47;0.90;;;;;;;;;;5031785;28;20026;-65
2022/07/07 07:18:07;;;;;;;1.05;0.90;;;;;;;;;;5031632;28;20431;-65
2022/07/07 07:20:33;;;;;;;1.55;0.90;;;;;;;;;;5031935;28;20029;-65
2022/07/07 07:22:59;;;;;;;1.42;0.80;;;;;;;;;;5035214;28;20112;-65
2022/07/07 07:25:24;;;;;;;2.35;1.40;;;;;;;;;;5035630;28;20052;-65
2022/07/07 07:27:50;;;;;;;1.30;0.82;;;;;;;;;;5034262;28;20145;-64
2022/07/07 07:30:15;;;;;;;2.58;1.17;;;;;;;;;;5035507;28;20025;-65
2022/07/07 07:32:43;;;;;;;1.20;0.90;;;;;;;;;;5035338;28;20071;-65
2022/07/07 07:35:09;;;;;;;3.13;1.10;;;;;;;;;;5035379;28;20026;-65
2022/07/07 07:37:35;;;;;;;1.70;1.02;;;;;;;;;;5035464;28;20097;-65
2022/07/07 07:40:01;;;;;;;1.30;1.00;;;;;;;;;;5035369;28;20104;-65
2022/07/07 07:42:26;;;;;;;1.40;0.95;;;;;;;;;;5035458;28;20160;-65
2022/07/07 07:45:10;;;;;;;2.47;1.15;;;;;;;;;;5035235;28;20053;-64
2022/07/07 07:47:41;;;;;;;1.50;1.05;;;;;;;;;;5035117;28;20029;-65
2022/07/07 07:50:08;;;;;;;4.18;1.20;;;;;;;;;;5035335;28;20103;-64
2022/07/07 07:52:34;;;;;;;2.72;1.35;;;;;;;;;;5035263;28;20034;-64
2022/07/07 07:55:00;;;;;;;3.92;1.20;;;;;;;;;;5035315;28;20386;-65
2022/07/07 07:57:25;;;;;;;1.15;0.90;;;;;;;;;;5034975;28;20065;-65
2022/07/07 07:59:51;;;;;;;1.10;0.90;;;;;;;;;;5035327;28;20053;-64
2022/07/07 08:02:16;;;;;;;2.22;1.08;;;;;;;;;;5034446;28;20052;-65
2022/07/07 08:04:42;;;;;;;1.92;0.90;;;;;;;;;;5035133;28;20040;-65
2022/07/07 08:07:07;;;;;;;1.27;0.82;;;;;;;;;;5034974;28;20029;-65
2022/07/07 08:09:33;;;;;;;1.45;0.73;;;;;;;;;;5034975;28;20025;-64
2022/07/07 08:11:58;;;;;;;1.20;0.90;;;;;;;;;;5034906;28;20021;-64
2022/07/07 08:14:24;;;;;;;0.70;0.68;;;;;;;;;;5034958;28;20040;-65
2022/07/07 08:16:50;;;;;;;1.52;0.80;;;;;;;;;;5034549;28;20025;-65
2022/07/07 08:19:17;;;;;;;1.10;0.90;;;;;;;;;;5034737;28;20032;-65
2022/07/07 08:21:46;;;;;;;1.88;0.93;;;;;;;;;;5034595;28;20528;-63
2022/07/07 08:24:13;;;;;;;2.28;1.20;;;;;;;;;;5034567;28;20040;-65
2022/07/07 08:26:39;;;;;;;1.40;1.00;;;;;;;;;;5034682;28;20395;-64
2022/07/07 08:29:05;;;;;;;1.98;1.40;;;;;;;;;;5034630;28;20021;-65
2022/07/07 08:31:31;;;;;;;1.92;1.30;;;;;;;;;;5034337;28;20022;-64
2022/07/07 08:33:56;;;;;;;2.13;1.50;;;;;;;;;;5033676;28;20481;-64
2022/07/07 08:36:22;;;;;;;2.42;1.77;;;;;;;;;;5034426;28;20037;-65
2022/07/07 08:38:47;;;;;;;2.67;1.90;;;;;;;;;;5034403;28;20050;-65
2022/07/07 08:41:15;;;;;;;2.90;1.80;;;;;;;;;;5034121;28;20387;-65
2022/07/07 08:43:40;;;;;;;5.15;2.03;;;;;;;;;;5034428;28;20017;-63
2022/07/07 08:46:08;;;;;;;2.97;1.65;;;;;;;;;;5033907;28;20049;-65
2022/07/07 08:48:34;;;;;;;2.75;1.80;;;;;;;;;;5034280;28;20035;-64
2022/07/07 08:51:01;;;;;;;2.33;1.83;;;;;;;;;;5034198;28;20478;-64
2022/07/07 08:53:32;;;;;;;2.60;1.85;;;;;;;;;;5034205;28;20036;-65
2022/07/07 08:55:59;;;;;;;2.55;2.05;;;;;;;;;;5033814;28;20104;-65
2022/07/07 08:58:25;;;;;;;4.35;2.10;;;;;;;;;;5033810;28;20114;-65
2022/07/07 09:00:52;;;;;;;3.50;2.17;;;;;;;;;;5033657;28;20025;-65
2022/07/07 09:03:18;;;;;;;2.97;2.00;;;;;;;;;;5033782;28;20025;-65
2022/07/07 09:05:44;;;;;;;5.55;2.60;;;;;;;;;;5034090;28;20029;-65
2022/07/07 09:08:18;;;;;;;3.47;2.50;;;;;;;;;;5033802;28;20486;-65
2022/07/07 09:10:44;;;;;;;5.05;2.58;;;;;;;;;;5033554;28;20384;-65
2022/07/07 09:13:31;;;;;;;3.70;2.30;;;;;;;;;;5033495;28;20030;-64
2022/07/07 09:16:18;;;;;;;3.65;2.70;;;;;;;;;;5033649;28;20028;-65
2022/07/07 09:18:46;;;;;;;3.10;2.50;;;;;;;;;;5033767;28;20021;-65
2022/07/07 09:21:27;;;;;;;2.85;2.30;;;;;;;;;;5033609;28;20087;-65
2022/07/07 09:23:57;;;;;;;3.63;2.60;;;;;;;;;;5033677;28;20056;-65
2022/07/07 09:26:37;;;;;;;4.13;3.05;;;;;;;;;;5033562;28;20474;-65
2022/07/07 09:29:27;;;;;;;3.40;2.70;;;;;;;;;;5033182;28;20033;-65
2022/07/07 09:32:01;;;;;;;3.92;2.45;;;;;;;;;;5033187;28;20471;-64
2022/07/07 09:34:32;;;;;;;5.30;2.95;;;;;;;;;;5033217;28;20037;-66
2022/07/07 09:39:48;;;;;;;4.45;2.50;;;;;;;;;;5033763;28;20027;-65
2022/07/07 09:42:31;;;;;;;3.80;2.53;;;;;;;;;;5033040;28;20052;-66
2022/07/07 09:45:09;;;;;;;5.10;2.65;;;;;;;;;;5032211;28;20433;-65
2022/07/07 09:47:34;;;;;;;4.32;2.80;;;;;;;;;;5033049;28;20087;-64
2022/07/07 09:50:12;;;;;;;7.60;2.80;;;;;;;;;;5032958;28;20422;-65
2022/07/07 09:52:40;;;;;;;4.97;2.55;;;;;;;;;;5033211;28;20043;-65
2022/07/07 09:55:11;;;;;;;3.13;2.70;;;;;;;;;;5032933;28;20082;-66
2022/07/07 09:57:37;;;;;;;2.60;2.30;;;;;;;;;;5032737;28;20037;-65
2022/07/07 10:00:07;;;;;;;3.03;2.53;;;;;;;;;;5032917;28;20091;-65
2022/07/07 10:02:36;;;;;;;2.97;2.35;;;;;;;;;;5032640;28;20503;-65
2022/07/07 10:05:02;;;;;;;3.17;2.60;;;;;;;;;;5032947;28;20037;-66
2022/07/07 10:07:30;;;;;;;3.22;2.72;;;;;;;;;;5032537;28;20478;-65
2022/07/07 10:10:04;;;;;;;3.10;2.25;;;;;;;;;;5013091;28;20373;-66
2022/07/07 10:12:31;;;;;;;3.10;1.95;;;;;;;;;;5012744;28;20056;-66
2022/07/07 10:15:04;;;;;;;2.63;1.88;;;;;;;;;;5013025;28;20026;-65
2022/07/07 10:17:31;;;;;;;2.42;2.08;;;;;;;;;;5011784;28;20445;-66
2022/07/07 10:19:57;;;;;;;2.25;1.80;;;;;;;;;;5012863;28;20026;-66
2022/07/07 10:22:27;;;;;;;3.20;1.80;;;;;;;;;;5026220;28;20034;-66
2022/07/07 10:24:59;;;;;;;3.08;2.00;;;;;;;;;;5032634;28;20065;-65
2022/07/07 10:27:27;;;;;;;2.95;2.15;;;;;;;;;;5031773;28;20029;-66
2022/07/07 10:29:54;;;;;;;2.53;1.80;;;;;;;;;;5031910;28;20040;-65
2022/07/07 10:32:39;;;;;;;3.13;2.10;;;;;;;;;;5032260;28;20140;-66
2022/07/07 10:35:10;;;;;;;2.75;1.58;;;;;;;;;;5032473;28;20021;-66
2022/07/07 10:37:53;;;;;;;2.35;1.73;;;;;;;;;;5027229;28;20064;-66
2022/07/07 10:40:19;;;;;;;2.75;1.83;;;;;;;;;;5028065;28;20449;-66
2022/07/07 10:43:23;;;;;;;3.70;1.90;;;;;;;;;;5029211;28;20112;-65
2022/07/07 10:45:52;;;;;;;5.30;1.60;;;;;;;;;;5025283;28;20502;-66
2022/07/07 10:48:46;;;;;;;3.30;1.77;;;;;;;;;;5028580;28;20467;-66
2022/07/07 10:51:23;;;;;;;2.20;1.50;;;;;;;;;;5028653;28;20029;-64
2022/07/07 10:54:01;;;;;;;2.40;1.90;;;;;;;;;;5028098;28;20116;-66
2022/07/07 10:56:27;;;;;;;3.85;1.80;;;;;;;;;;5028690;28;20025;-65
2022/07/07 10:58:55;;;;;;;2.05;1.60;;;;;;;;;;5032414;28;20487;-65
2022/07/07 11:01:22;;;;;;;2.88;1.50;;;;;;;;;;5031997;28;20042;-65
2022/07/07 11:03:48;;;;;;;2.42;1.60;;;;;;;;;;5031934;28;20072;-65
2022/07/07 11:06:14;;;;;;;2.65;1.73;;;;;;;;;;5032625;28;20455;-66
2022/07/07 11:08:40;;;;;;;2.45;2.00;;;;;;;;;;5031922;28;20041;-66
2022/07/07 11:11:06;;;;;;;3.35;1.65;;;;;;;;;;5031461;28;20037;-65
2022/07/07 11:13:37;;;;;;;2.33;1.60;;;;;;;;;;5032201;28;20547;-66
2022/07/07 11:16:14;;;;;;;2.10;1.60;;;;;;;;;;5032482;28;20049;-64
2022/07/07 11:18:41;;;;;;;2.90;1.90;;;;;;;;;;5032927;28;20084;-66
2022/07/07 11:21:08;;;;;;;3.85;2.33;;;;;;;;;;5031910;28;20433;-65
2022/07/07 11:23:56;;;;;;;4.10;2.60;;;;;;;;;;5031299;28;20120;-65
2022/07/07 11:26:25;;;;;;;2.92;2.20;;;;;;;;;;5030116;28;20037;-67
2022/07/07 11:28:58;;;;;;;3.95;2.45;;;;;;;;;;5031696;28;20471;-66
2022/07/07 11:31:26;;;;;;;2.15;1.90;;;;;;;;;;5031246;28;20068;-65
2022/07/07 11:33:55;;;;;;;3.88;2.35;;;;;;;;;;5031438;28;20036;-66
2022/07/07 11:36:26;;;;;;;3.03;2.00;;;;;;;;;;5031278;28;20056;-66
2022/07/07 11:38:56;;;;;;;3.92;2.30;;;;;;;;;;5031491;28;20037;-66
2022/07/07 11:41:45;;;;;;;3.42;1.98;;;;;;;;;;5031909;28;20412;-65
2022/07/07 11:44:21;;;;;;;4.05;2.30;;;;;;;;;;5033200;28;20025;-66
2022/07/07 11:46:50;;;;;;;2.50;2.03;;;;;;;;;;5031561;28;20029;-66
2022/07/07 11:49:17;;;;;;;4.07;2.47;;;;;;;;;;5031455;28;20494;-64
2022/07/07 11:51:45;;;;;;;4.80;2.33;;;;;;;;;;5032396;28;20033;-65
2022/07/07 11:54:11;;;;;;;5.28;2.50;;;;;;;;;;5030009;28;20113;-66
2022/07/07 11:56:37;;;;;;;3.28;2.20;;;;;;;;;;5031510;28;20124;-66
2022/07/07 11:59:04;;;;;;;2.88;2.47;;;;;;;;;;5032649;28;20030;-66
2022/07/07 12:01:40;;;;;;;4.43;2.47;;;;;;;;;;5031945;28;20049;-65
2022/07/07 12:04:14;;;;;;;3.30;2.53;;;;;;;;;;5031138;28;20079;-66
2022/07/07 12:06:40;;;;;;;7.32;2.40;;;;;;;;;;5031306;28;20021;-65
2022/07/07 12:09:06;;;;;;;4.05;2.85;;;;;;;;;;5030603;28;20033;-65
2022/07/07 12:11:36;;;;;;;5.20;3.20;;;;;;;;;;5031831;28;20532;-66
2022/07/07 12:14:02;;;;;;;4.50;3.25;;;;;;;;;;5032367;28;20033;-65
2022/07/07 12:16:43;;;;;;;5.88;3.30;;;;;;;;;;5030812;28;20171;-66
2022/07/07 12:19:09;;;;;;;3.90;2.95;;;;;;;;;;5031145;28;20030;-66
2022/07/07 12:21:42;;;;;;;3.90;3.30;;;;;;;;;;5031013;28;20030;-66
2022/07/07 12:24:08;;;;;;;6.43;3.33;;;;;;;;;;5031543;28;20114;-65
2022/07/07 12:26:49;;;;;;;6.03;3.45;;;;;;;;;;5031527;28;20064;-65
2022/07/07 12:29:21;;;;;;;5.28;3.35;;;;;;;;;;5031435;28;20109;-65
2022/07/07 12:31:49;;;;;;;4.95;3.22;;;;;;;;;;5030690;28;20029;-64
2022/07/07 12:34:20;;;;;;;5.78;3.55;;;;;;;;;;5030471;28;20024;-64
2022/07/07 12:36:47;;;;;;;4.72;3.70;;;;;;;;;;5030523;28;20026;-64
2022/07/07 12:39:14;;;;;;;5.45;3.95;;;;;;;;;;5030515;28;20030;-63
2022/07/07 12:41:40;;;;;;;5.53;3.47;;;;;;;;;;5030699;28;20428;-63
2022/07/07 12:44:22;;;;;;;4.88;3.50;;;;;;;;;;5031984;28;20048;-65
2022/07/07 12:46:48;;;;;;;5.95;3.40;;;;;;;;;;5031349;28;20030;-63
2022/07/07 12:49:14;;;;;;;5.55;3.70;;;;;;;;;;5030456;28;20518;-64
2022/07/07 12:51:44;;;;;;;4.15;3.22;;;;;;;;;;5029934;28;20021;-63
2022/07/07 12:54:28;;;;;;;7.30;3.47;;;;;;;;;;5031290;28;20029;-63
2022/07/07 12:57:02;;;;;;;14.30;4.22;;;;;;;;;;5030754;28;20394;-65
2022/07/07 12:59:37;;;;;;;3.95;3.10;;;;;;;;;;5029914;28;20538;-63
2022/07/07 13:02:03;;;;;;;5.13;3.05;;;;;;;;;;5030204;28;20399;-65
2022/07/07 13:04:28;;;;;;;6.03;3.25;;;;;;;;;;5030231;28;20067;-65
2022/07/07 13:06:54;;;;;;;5.07;3.38;;;;;;;;;;5030534;28;21173;-66
2022/07/07 13:09:20;;;;;;;3.90;3.17;;;;;;;;;;5030055;28;20053;-66
2022/07/07 13:11:49;;;;;;;4.85;3.30;;;;;;;;;;5030632;28;20030;-65
2022/07/07 13:14:15;;;;;;;4.95;2.88;;;;;;;;;;5029533;28;20112;-64
2022/07/07 13:16:41;;;;;;;6.68;3.20;;;;;;;;;;5030169;28;20120;-65
2022/07/07 13:19:07;;;;;;;5.85;3.25;;;;;;;;;;5029439;28;20068;-66
2022/07/07 13:21:32;;;;;;;4.70;3.17;;;;;;;;;;5028796;28;20059;-66
2022/07/07 13:23:58;;;;;;;3.63;2.90;;;;;;;;;;5029902;28;20034;-66
2022/07/07 13:26:24;;;;;;;3.50;2.97;;;;;;;;;;5029866;28;20120;-66
2022/07/07 13:28:50;;;;;;;4.93;3.30;;;;;;;;;;5029927;28;20104;-66
2022/07/07 13:31:16;;;;;;;3.58;3.10;;;;;;;;;;5029154;28;20029;-65
2022/07/07 13:33:41;;;;;;;5.80;3.58;;;;;;;;;;5029777;28;20033;-66
2022/07/07 13:36:07;;;;;;;9.20;3.25;;;;;;;;;;5030021;28;20036;-65
2022/07/07 13:38:33;;;;;;;5.20;3.20;;;;;;;;;;5029602;28;20026;-63
2022/07/07 13:40:59;;;;;;;4.47;3.20;;;;;;;;;;5029531;28;20028;-66
2022/07/07 13:43:25;;;;;;;4.35;3.35;;;;;;;;;;5028478;28;20052;-64
2022/07/07 13:45:51;;;;;;;7.00;4.00;;;;;;;;;;5029690;28;20474;-64
2022/07/07 13:48:18;;;;;;;7.40;3.40;;;;;;;;;;5029450;28;20025;-64
2022/07/07 13:50:44;;;;;;;3.88;2.97;;;;;;;;;;5029166;28;20494;-63
2022/07/07 13:53:09;;;;;;;4.53;3.08;;;;;;;;;;5029805;28;20053;-65
2022/07/07 13:55:35;;;;;;;3.45;3.00;;;;;;;;;;5028241;28;20036;-66
2022/07/07 13:58:01;;;;;;;3.33;2.70;;;;;;;;;;5028912;28;20033;-66
2022/07/07 14:00:27;;;;;;;5.50;2.90;;;;;;;;;;5028571;28;20037;-66
2022/07/07 14:02:52;;;;;;;6.10;2.78;;;;;;;;;;5028241;28;20061;-66
2022/07/07 14:05:19;;;;;;;9.80;3.00;;;;;;;;;;5028611;28;20025;-65
2022/07/07 14:07:45;;;;;;;5.53;2.85;;;;;;;;;;5028547;28;20486;-65
2022/07/07 14:10:11;;;;;;;5.18;2.58;;;;;;;;;;5029721;28;20120;-63
2022/07/07 14:12:37;;;;;;;6.70;3.20;;;;;;;;;;5029487;28;20152;-63
2022/07/07 14:15:04;;;;;;;3.92;2.90;;;;;;;;;;5029192;28;20100;-65
2022/07/07 14:17:29;;;;;;;4.68;2.83;;;;;;;;;;5028583;28;20104;-64
2022/07/07 14:19:56;;;;;;;3.70;2.78;;;;;;;;;;5030074;28;20105;-66
2022/07/07 14:22:21;;;;;;;4.32;2.55;;;;;;;;;;5028246;28;20025;-66
2022/07/07 14:24:47;;;;;;;5.32;2.47;;;;;;;;;;5028966;28;20087;-64
2022/07/07 14:27:13;;;;;;;3.95;2.42;;;;;;;;;;5029140;28;20025;-64
2022/07/07 14:29:38;;;;;;;5.05;2.50;;;;;;;;;;5029487;28;20061;-66
2022/07/07 14:32:05;;;;;;;2.72;2.42;;;;;;;;;;5028378;28;20344;-64
2022/07/07 14:34:30;;;;;;;4.45;2.60;;;;;;;;;;5028640;28;20021;-66
2022/07/07 14:36:56;;;;;;;3.17;2.50;;;;;;;;;;5027763;28;20091;-65
2022/07/07 14:39:22;;;;;;;4.22;2.40;;;;;;;;;;5028959;28;20117;-66
2022/07/07 14:41:50;;;;;;;4.93;2.20;;;;;;;;;;5029495;28;20102;-65
2022/07/07 14:44:15;;;;;;;2.85;2.10;;;;;;;;;;5029379;28;20128;-65
2022/07/07 14:46:41;;;;;;;4.45;2.47;;;;;;;;;;5028398;28;20109;-65
2022/07/07 14:49:06;;;;;;;3.45;2.60;;;;;;;;;;5029211;28;20095;-66